Time;durP1;ratioP1;P1;durP2;ratioP2;P2;SDS_P1;SDS_P2;PMS_P1;PMS_P2;Temp;Humidity;BMP_temperature;BMP_pressure;BME280_temperature;BME280_humidity;BME280_pressure;Samples;Min_cycle;Max_cycle;Signal;HPM_P1;HPM_P2
2021/10/29 00:02:23;;;;;;;6.28;2.58;;;;;;;11.93;98.64;100591.25;5100209;28;20486;-70
2021/10/29 00:04:51;;;;;;;9.35;2.97;;;;;;;11.98;98.27;100585.53;5095384;28;20354;-70
2021/10/29 00:07:17;;;;;;;5.13;2.75;;;;;;;11.98;98.60;100587.47;5095584;28;20039;-70
2021/10/29 00:09:43;;;;;;;6.05;2.58;;;;;;;11.92;98.61;100592.41;5105884;28;20469;-69
2021/10/29 00:12:09;;;;;;;5.45;2.97;;;;;;;11.94;98.56;100581.25;5106864;28;20122;-71
2021/10/29 00:14:35;;;;;;;6.22;2.30;;;;;;;11.98;97.72;100590.16;5102049;28;20031;-70
2021/10/29 00:17:01;;;;;;;6.88;2.58;;;;;;;11.87;98.23;100587.31;5103201;28;20115;-69
2021/10/29 00:19:27;;;;;;;6.80;2.78;;;;;;;11.77;98.91;100583.31;5097745;28;20489;-70
2021/10/29 00:21:53;;;;;;;6.38;3.10;;;;;;;11.72;99.49;100578.25;5098985;28;20254;-70
2021/10/29 00:24:19;;;;;;;6.22;2.55;;;;;;;11.74;99.50;100580.56;5104513;28;20470;-70
2021/10/29 00:26:44;;;;;;;5.78;2.70;;;;;;;11.73;98.86;100581.69;5106310;28;20477;-70
2021/10/29 00:29:10;;;;;;;9.77;2.70;;;;;;;11.78;98.86;100581.41;5103247;28;20035;-69
2021/10/29 00:31:36;;;;;;;7.20;2.55;;;;;;;11.72;99.15;100597.13;5108900;28;20036;-70
2021/10/29 00:34:01;;;;;;;4.72;2.67;;;;;;;11.77;98.71;100577.13;5105045;28;20416;-70
2021/10/29 00:36:27;;;;;;;5.38;2.90;;;;;;;11.78;98.39;100589.50;5096797;28;20031;-69
2021/10/29 00:38:52;;;;;;;4.80;2.63;;;;;;;11.71;99.07;100594.81;5099016;28;20059;-71
2021/10/29 00:41:18;;;;;;;8.23;2.60;;;;;;;11.76;98.39;100589.88;5094125;28;20031;-70
2021/10/29 00:43:43;;;;;;;7.28;3.10;;;;;;;11.72;98.95;100586.34;5103180;28;20043;-70
2021/10/29 00:46:09;;;;;;;5.20;2.50;;;;;;;11.71;98.33;100584.00;5100847;28;20059;-69
2021/10/29 00:48:35;;;;;;;5.38;2.80;;;;;;;11.62;98.78;100586.13;5091239;28;20457;-70
2021/10/29 00:51:03;;;;;;;4.95;2.90;;;;;;;11.61;98.92;100598.84;5089538;28;20938;-70
2021/10/29 00:53:30;;;;;;;8.43;3.25;;;;;;;11.60;98.81;100596.50;5103802;28;20492;-68
2021/10/29 00:55:56;;;;;;;6.80;2.90;;;;;;;11.54;99.15;100596.03;5102561;28;20520;-69
2021/10/29 00:58:22;;;;;;;6.53;3.33;;;;;;;11.50;99.23;100595.22;5101893;28;20039;-70
2021/10/29 01:00:47;;;;;;;6.40;2.88;;;;;;;11.52;99.44;100597.53;5103541;28;20042;-69
2021/10/29 01:03:13;;;;;;;7.40;3.10;;;;;;;11.51;99.29;100601.41;5095677;28;20028;-70
2021/10/29 01:05:39;;;;;;;8.13;3.90;;;;;;;11.51;99.01;100598.69;5090660;28;20122;-70
2021/10/29 01:08:05;;;;;;;8.43;3.08;;;;;;;11.53;98.42;100596.41;5097177;28;20040;-70
2021/10/29 01:10:31;;;;;;;7.45;3.28;;;;;;;11.45;99.07;100602.84;5091738;28;20314;-70
2021/10/29 01:12:57;;;;;;;4.72;2.70;;;;;;;11.35;99.20;100600.75;5104199;28;20028;-70
2021/10/29 01:15:23;;;;;;;6.20;3.25;;;;;;;11.35;98.91;100598.84;5098183;28;20065;-70
2021/10/29 01:17:49;;;;;;;8.60;3.45;;;;;;;11.25;99.35;100604.03;5101805;28;20044;-69
2021/10/29 01:20:18;;;;;;;7.43;3.35;;;;;;;11.24;99.95;100602.50;5090582;28;20039;-71
2021/10/29 01:22:44;;;;;;;7.72;3.60;;;;;;;11.26;99.25;100598.31;5103225;28;20114;-71
2021/10/29 01:25:10;;;;;;;8.07;3.22;;;;;;;11.14;99.55;100598.47;5102287;28;20122;-70
2021/10/29 01:27:36;;;;;;;7.25;2.85;;;;;;;11.14;99.60;100597.69;5105029;28;20111;-71
2021/10/29 01:30:01;;;;;;;8.70;4.10;;;;;;;11.14;99.92;100593.09;5099400;28;20118;-71
2021/10/29 01:32:27;;;;;;;6.57;3.42;;;;;;;11.09;100.00;100584.53;5110367;28;20062;-70
2021/10/29 01:34:53;;;;;;;5.78;2.65;;;;;;;11.09;99.52;100589.91;5093531;28;20032;-70
2021/10/29 01:37:18;;;;;;;5.15;2.83;;;;;;;11.08;100.00;100588.34;5100952;28;20093;-70
2021/10/29 01:39:44;;;;;;;7.35;3.10;;;;;;;11.10;99.91;100591.47;5110125;28;20058;-70
2021/10/29 01:42:10;;;;;;;7.03;3.30;;;;;;;11.07;99.90;100592.94;5099291;28;20509;-70
2021/10/29 01:44:35;;;;;;;8.27;3.40;;;;;;;11.04;99.15;100582.13;5102050;28;20108;-71
2021/10/29 01:47:01;;;;;;;6.07;3.28;;;;;;;11.08;98.96;100588.34;5094565;28;20587;-70
2021/10/29 01:49:26;;;;;;;8.20;3.65;;;;;;;11.02;99.04;100584.38;5092422;28;20032;-70
2021/10/29 01:51:52;;;;;;;7.07;3.30;;;;;;;10.91;99.77;100586.91;5100096;28;20035;-70
2021/10/29 01:54:17;;;;;;;12.07;3.47;;;;;;;10.88;100.00;100585.72;5093874;28;20039;-70
2021/10/29 01:56:44;;;;;;;9.30;3.75;;;;;;;10.92;100.00;100599.22;5091362;28;20582;-69
2021/10/29 01:59:09;;;;;;;11.52;4.03;;;;;;;10.94;99.83;100593.50;5094189;28;20111;-70
2021/10/29 02:01:34;;;;;;;8.77;3.70;;;;;;;10.82;100.00;100589.03;5095015;28;20560;-71
2021/10/29 02:04:00;;;;;;;8.23;3.53;;;;;;;10.82;100.00;100587.13;5092107;28;20504;-70
2021/10/29 02:06:25;;;;;;;8.27;3.53;;;;;;;10.79;100.00;100587.88;5096992;28;20087;-70
2021/10/29 02:08:51;;;;;;;10.23;3.72;;;;;;;10.74;100.00;100574.66;5088738;28;20081;-70
2021/10/29 02:11:16;;;;;;;8.75;3.83;;;;;;;10.71;100.00;100582.69;5094959;28;20055;-70
2021/10/29 02:13:42;;;;;;;9.18;3.40;;;;;;;10.62;100.00;100574.84;5097771;28;20032;-69
2021/10/29 02:16:08;;;;;;;9.13;3.65;;;;;;;10.70;100.00;100573.81;5095191;28;20110;-70
2021/10/29 02:18:34;;;;;;;8.05;3.28;;;;;;;10.66;100.00;100564.94;5103252;28;20053;-69
2021/10/29 02:20:59;;;;;;;9.00;3.13;;;;;;;10.71;100.00;100563.84;5096022;28;20032;-69
2021/10/29 02:23:26;;;;;;;8.60;3.67;;;;;;;10.66;100.00;100564.13;5101626;28;20085;-67
2021/10/29 02:25:51;;;;;;;7.38;3.97;;;;;;;10.62;100.00;100558.69;5101298;28;20039;-70
2021/10/29 02:28:20;;;;;;;7.22;3.05;;;;;;;10.65;100.00;100549.09;5099481;28;20036;-75
2021/10/29 02:30:46;;;;;;;11.38;3.78;;;;;;;10.56;100.00;100540.47;5108692;28;20056;-68
2021/10/29 02:33:14;;;;;;;10.43;3.85;;;;;;;10.49;100.00;100535.75;5111233;28;20036;-69
2021/10/29 02:35:39;;;;;;;7.97;3.53;;;;;;;10.51;100.00;100533.47;5106978;28;20127;-68
2021/10/29 02:38:05;;;;;;;12.63;3.72;;;;;;;10.44;100.00;100530.66;5107087;28;20110;-68
2021/10/29 02:40:31;;;;;;;7.65;3.40;;;;;;;10.50;100.00;100526.53;5109807;28;20068;-68
2021/10/29 02:42:57;;;;;;;7.20;3.25;;;;;;;10.53;100.00;100520.44;5095691;28;20043;-69
2021/10/29 02:45:23;;;;;;;8.30;4.50;;;;;;;10.46;100.00;100525.69;5077040;28;20032;-68
2021/10/29 02:47:48;;;;;;;9.27;3.92;;;;;;;10.48;100.00;100514.56;5109809;28;20036;-70
2021/10/29 02:50:17;;;;;;;9.80;3.47;;;;;;;10.50;100.00;100515.78;5112519;28;20035;-68
2021/10/29 02:52:43;;;;;;;7.60;4.03;;;;;;;10.45;100.00;100516.03;5100720;28;20096;-68
2021/10/29 02:55:10;;;;;;;9.07;3.60;;;;;;;10.44;100.00;100517.19;5112122;28;20102;-69
2021/10/29 02:57:36;;;;;;;9.38;3.65;;;;;;;10.34;100.00;100506.22;5105045;28;20031;-68
2021/10/29 03:00:08;;;;;;;8.45;3.58;;;;;;;10.41;100.00;100517.13;5096046;28;20098;-68
2021/10/29 03:02:33;;;;;;;;;;;;;;;10.25;100.00;100511.84;5091704;28;20031;-68
2021/10/29 03:05:00;;;;;;;8.68;3.50;;;;;;;10.27;100.00;100512.25;5102231;28;20381;-69
2021/10/29 03:07:25;;;;;;;6.32;2.67;;;;;;;10.24;100.00;100512.97;5101988;28;20497;-68
2021/10/29 03:09:51;;;;;;;6.68;3.50;;;;;;;10.20;100.00;100516.72;5105316;28;20036;-68
2021/10/29 03:12:17;;;;;;;10.82;3.33;;;;;;;10.27;100.00;100522.25;5101026;28;20464;-68
2021/10/29 03:14:43;;;;;;;6.15;3.72;;;;;;;10.27;100.00;100517.66;5109441;28;20134;-68
2021/10/29 03:17:08;;;;;;;6.20;3.05;;;;;;;10.28;100.00;100507.66;5106303;28;20051;-68
2021/10/29 03:19:34;;;;;;;7.45;3.60;;;;;;;10.22;100.00;100517.16;5099483;28;20035;-69
2021/10/29 03:21:59;;;;;;;12.45;4.20;;;;;;;10.23;100.00;100500.66;5097551;28;20478;-68
2021/10/29 03:24:25;;;;;;;7.55;3.78;;;;;;;10.16;100.00;100507.81;5107777;28;20028;-68
2021/10/29 03:26:50;;;;;;;7.97;3.80;;;;;;;10.14;100.00;100520.84;5097751;28;20398;-68
2021/10/29 03:29:16;;;;;;;8.93;4.13;;;;;;;10.11;100.00;100508.06;5099164;28;20157;-71
2021/10/29 03:31:41;;;;;;;12.48;3.95;;;;;;;10.13;100.00;100505.81;5109760;28;20059;-69
2021/10/29 03:34:07;;;;;;;9.02;3.53;;;;;;;10.04;100.00;100514.09;5112994;28;20038;-68
2021/10/29 03:36:32;;;;;;;10.13;4.53;;;;;;;10.07;100.00;100513.38;5106227;28;20043;-67
2021/10/29 03:39:00;;;;;;;10.93;4.03;;;;;;;10.06;100.00;100509.13;5106039;28;20039;-68
2021/10/29 03:41:29;;;;;;;11.07;4.03;;;;;;;10.03;100.00;100513.31;5105290;28;20032;-70
2021/10/29 03:44:20;;;;;;;5.78;3.08;;;;;;;9.98;100.00;100515.50;5083756;28;20043;-68
2021/10/29 03:46:47;;;;;;;6.80;3.22;;;;;;;9.90;100.00;100514.56;5103981;28;20070;-68
2021/10/29 03:51:49;;;;;;;7.50;3.10;;;;;;;9.87;100.00;100514.50;5110736;28;20378;-68
2021/10/29 03:54:27;;;;;;;7.85;3.08;;;;;;;9.83;100.00;100519.03;5100866;28;20114;-69
2021/10/29 03:56:58;;;;;;;9.02;3.63;;;;;;;9.78;100.00;100522.78;5101776;28;20035;-70
2021/10/29 03:59:23;;;;;;;9.25;3.65;;;;;;;9.89;100.00;100521.06;5107757;28;20114;-70
2021/10/29 04:01:49;;;;;;;8.18;3.30;;;;;;;9.90;100.00;100519.16;5099549;28;20469;-69
2021/10/29 04:04:15;;;;;;;7.70;3.22;;;;;;;9.87;100.00;100517.97;5090763;28;20062;-67
2021/10/29 04:06:40;;;;;;;8.40;3.28;;;;;;;9.81;100.00;100521.28;5123683;22;20067;-64
2021/10/29 04:09:07;;;;;;;10.23;3.88;;;;;;;9.80;100.00;100519.72;5086240;28;20121;-67
2021/10/29 04:11:39;;;;;;;8.18;3.53;;;;;;;9.67;100.00;100518.31;5089342;28;20505;-67
2021/10/29 04:14:13;;;;;;;8.70;3.65;;;;;;;9.66;100.00;100514.81;5088643;28;20378;-67
2021/10/29 04:16:40;;;;;;;9.77;3.75;;;;;;;9.72;100.00;100515.31;5085130;28;20110;-68
2021/10/29 04:19:08;;;;;;;7.97;3.30;;;;;;;9.65;100.00;100515.19;5062116;28;20151;-67
2021/10/29 04:21:35;;;;;;;10.90;3.45;;;;;;;9.47;100.00;100508.63;5066969;28;20028;-67
2021/10/29 04:24:01;;;;;;;7.43;3.80;;;;;;;9.47;100.00;100517.47;5070897;28;20028;-68
2021/10/29 04:26:27;;;;;;;11.73;4.95;;;;;;;9.54;100.00;100511.50;5069492;28;20035;-66
2021/10/29 04:28:55;;;;;;;13.90;4.35;;;;;;;9.52;100.00;100505.69;5066286;28;20043;-68
2021/10/29 04:31:27;;;;;;;13.30;4.43;;;;;;;9.48;100.00;100502.13;5050177;28;20032;-67
2021/10/29 04:33:53;;;;;;;10.73;4.10;;;;;;;9.51;100.00;100496.03;5070076;28;20618;-67
2021/10/29 04:36:19;;;;;;;13.32;4.43;;;;;;;9.39;100.00;100505.00;5049109;28;20044;-68
2021/10/29 04:38:46;;;;;;;14.15;4.60;;;;;;;9.43;100.00;100505.88;5070537;28;20039;-67
2021/10/29 04:41:13;;;;;;;10.30;3.95;;;;;;;9.35;100.00;100504.16;5069983;28;20047;-67
2021/10/29 04:43:39;;;;;;;8.93;3.45;;;;;;;9.34;100.00;100507.97;5066035;28;20113;-68
2021/10/29 04:46:05;;;;;;;10.15;4.57;;;;;;;9.36;100.00;100494.19;5069720;28;20107;-68
2021/10/29 04:48:31;;;;;;;9.63;4.10;;;;;;;9.37;100.00;100498.44;5065565;28;20040;-68
2021/10/29 04:50:57;;;;;;;9.55;3.80;;;;;;;9.48;100.00;100502.13;5064341;28;20025;-67
2021/10/29 04:53:23;;;;;;;11.57;3.90;;;;;;;9.35;100.00;100488.03;5070985;28;20047;-67
2021/10/29 04:55:48;;;;;;;12.07;4.85;;;;;;;9.44;100.00;100490.53;5065878;28;20040;-67
2021/10/29 04:58:14;;;;;;;7.80;3.75;;;;;;;9.43;100.00;100491.63;5070024;28;20024;-68
2021/10/29 05:00:40;;;;;;;9.23;4.03;;;;;;;9.39;100.00;100498.88;5061074;28;20550;-68
2021/10/29 05:03:06;;;;;;;10.80;4.75;;;;;;;9.33;100.00;100495.66;5062693;28;20028;-68
2021/10/29 05:05:35;;;;;;;12.75;4.13;;;;;;;9.32;100.00;100491.41;5070650;28;20047;-67
2021/10/29 05:08:04;;;;;;;9.60;4.18;;;;;;;9.24;100.00;100487.00;5066435;28;20466;-66
2021/10/29 05:10:30;;;;;;;9.05;4.55;;;;;;;9.27;100.00;100486.31;5061309;28;20025;-67
2021/10/29 05:12:55;;;;;;;10.60;3.65;;;;;;;9.27;100.00;100480.16;5057778;28;20028;-67
2021/10/29 05:15:21;;;;;;;9.15;3.85;;;;;;;9.34;100.00;100477.63;5064301;28;20054;-67
2021/10/29 05:17:47;;;;;;;9.68;4.15;;;;;;;9.23;100.00;100487.38;5065304;28;20086;-67
2021/10/29 05:20:14;;;;;;;10.25;3.65;;;;;;;9.22;100.00;100493.84;5064243;28;20036;-68
2021/10/29 05:22:40;;;;;;;10.02;4.53;;;;;;;9.22;100.00;100486.56;5062763;28;20037;-67
2021/10/29 05:25:07;;;;;;;8.25;4.07;;;;;;;9.20;100.00;100493.41;5058360;28;20556;-67
2021/10/29 05:27:32;;;;;;;14.82;4.40;;;;;;;9.30;100.00;100484.81;5069685;28;20033;-68
2021/10/29 05:29:58;;;;;;;9.13;3.65;;;;;;;9.19;100.00;100483.81;5062807;28;20119;-67
2021/10/29 05:32:23;;;;;;;7.53;3.80;;;;;;;9.26;100.00;100486.66;5062819;28;20063;-67
2021/10/29 05:34:49;;;;;;;11.82;4.22;;;;;;;9.19;100.00;100489.19;5052060;28;20515;-67
2021/10/29 05:37:14;;;;;;;12.82;4.35;;;;;;;9.14;100.00;100487.53;5061821;28;20554;-67
2021/10/29 05:39:39;;;;;;;6.40;3.35;;;;;;;9.26;100.00;100489.34;5065045;28;20068;-67
2021/10/29 05:42:05;;;;;;;10.90;4.28;;;;;;;9.23;100.00;100493.53;5067593;28;20094;-67
2021/10/29 05:44:30;;;;;;;8.32;3.72;;;;;;;9.19;100.00;100492.66;5064204;28;20040;-67
2021/10/29 05:46:56;;;;;;;12.18;3.53;;;;;;;9.24;100.00;100488.91;5066177;28;20039;-67
2021/10/29 05:49:23;;;;;;;8.02;3.80;;;;;;;9.13;100.00;100488.69;5058082;28;20041;-68
2021/10/29 05:51:51;;;;;;;11.93;4.25;;;;;;;9.12;100.00;100486.34;5050803;28;20790;-68
2021/10/29 05:57:02;;;;;;;8.77;3.92;;;;;;;9.14;100.00;100476.78;5047190;28;20634;-68
2021/10/29 05:59:28;;;;;;;9.63;3.78;;;;;;;9.12;100.00;100484.41;5063462;28;20028;-67
2021/10/29 06:01:54;;;;;;;13.52;3.80;;;;;;;9.04;100.00;100486.16;5068961;28;20044;-68
2021/10/29 06:04:19;;;;;;;9.18;3.42;;;;;;;9.08;100.00;100480.88;5064874;28;20035;-67
2021/10/29 06:06:45;;;;;;;10.18;3.40;;;;;;;9.06;100.00;100480.44;5064888;28;20495;-68
2021/10/29 06:09:11;;;;;;;10.05;4.07;;;;;;;9.07;100.00;100484.69;5071979;28;20052;-67
2021/10/29 06:11:37;;;;;;;9.30;4.15;;;;;;;9.04;100.00;100478.09;5071910;28;20119;-67
2021/10/29 06:14:03;;;;;;;11.40;4.32;;;;;;;9.07;100.00;100480.13;5068373;28;20521;-66
2021/10/29 06:16:29;;;;;;;9.02;3.65;;;;;;;9.04;100.00;100475.41;5073749;28;20413;-68
2021/10/29 06:18:55;;;;;;;7.75;2.95;;;;;;;9.08;100.00;100476.28;5073502;28;20056;-67
2021/10/29 06:21:30;;;;;;;6.35;3.03;;;;;;;9.09;100.00;100475.19;5068415;28;20052;-67
2021/10/29 06:24:06;;;;;;;15.27;4.45;;;;;;;9.08;100.00;100478.97;5073087;28;20051;-67
2021/10/29 06:26:46;;;;;;;10.25;3.90;;;;;;;9.06;100.00;100481.22;5073331;28;20370;-67
2021/10/29 06:29:12;;;;;;;10.55;4.38;;;;;;;9.08;100.00;100480.88;5066423;28;20055;-67
2021/10/29 06:31:38;;;;;;;9.25;3.33;;;;;;;9.17;100.00;100481.50;5072628;28;20101;-68
2021/10/29 06:34:03;;;;;;;8.63;4.07;;;;;;;9.17;100.00;100478.00;5070422;28;20036;-68
2021/10/29 06:36:29;;;;;;;7.90;3.55;;;;;;;9.16;100.00;100482.59;5072832;28;20025;-68
2021/10/29 06:38:58;;;;;;;9.70;3.67;;;;;;;9.10;100.00;100484.00;5073373;28;20458;-69
2021/10/29 06:41:24;;;;;;;11.55;4.72;;;;;;;9.18;100.00;100479.56;5067743;28;20021;-68
2021/10/29 06:46:48;;;;;;;9.52;3.85;;;;;;;9.18;100.00;100488.41;5067382;28;20033;-68
2021/10/29 06:51:54;;;;;;;10.07;3.88;;;;;;;9.23;100.00;100492.75;5066439;28;20037;-67
2021/10/29 06:59:12;;;;;;;8.60;3.55;;;;;;;9.16;100.00;100487.97;5064151;28;20044;-67
2021/10/29 07:00:51;;;;;;;10.02;3.88;;;;;;;9.26;100.00;100483.97;5071667;28;20071;-67
2021/10/29 07:41:37;;;;;;;12.68;5.57;;;;;;;9.67;100.00;100504.84;5070341;28;20028;-66
2021/10/29 07:44:13;;;;;;;8.43;3.50;;;;;;;9.69;100.00;100499.91;5070709;28;20040;-66
2021/10/29 07:46:39;;;;;;;10.18;3.42;;;;;;;9.78;100.00;100492.41;5063535;28;20028;-66
2021/10/29 07:49:06;;;;;;;9.30;3.95;;;;;;;9.72;100.00;100499.97;5070780;28;20032;-66
2021/10/29 07:51:32;;;;;;;10.13;3.78;;;;;;;9.79;100.00;100502.81;5069689;28;20040;-66
2021/10/29 07:53:58;;;;;;;12.32;3.42;;;;;;;9.83;100.00;100492.13;5072286;28;20051;-65
2021/10/29 07:56:23;;;;;;;13.85;3.60;;;;;;;9.85;100.00;100497.94;5067546;28;20032;-66
2021/10/29 07:58:49;;;;;;;6.60;2.97;;;;;;;10.00;100.00;100494.41;5068872;28;20115;-66
2021/10/29 08:01:14;;;;;;;5.80;2.90;;;;;;;10.09;100.00;100486.88;5059768;28;20391;-68
2021/10/29 08:03:40;;;;;;;7.32;3.25;;;;;;;10.15;100.00;100487.41;5060755;28;20072;-66
2021/10/29 08:06:06;;;;;;;8.35;4.00;;;;;;;10.27;99.85;100482.66;5070169;28;20043;-66
2021/10/29 08:08:31;;;;;;;9.73;3.55;;;;;;;10.39;99.01;100487.09;5050663;28;20063;-67
2021/10/29 08:10:57;;;;;;;9.13;4.68;;;;;;;10.49;99.25;100487.28;5065310;28;20069;-68
2021/10/29 08:13:22;;;;;;;10.38;3.28;;;;;;;10.60;99.33;100488.25;5071655;28;20036;-66
2021/10/29 08:15:53;;;;;;;12.52;4.00;;;;;;;10.82;98.12;100490.16;5066936;28;20029;-66
2021/10/29 08:18:19;;;;;;;4.90;2.57;;;;;;;10.90;98.01;100496.44;5070286;28;20068;-66
2021/10/29 08:20:44;;;;;;;5.57;2.60;;;;;;;10.97;96.83;100495.78;5070300;28;20024;-66
2021/10/29 08:23:11;;;;;;;10.10;3.50;;;;;;;10.98;95.82;100497.34;5048365;28;20040;-67
2021/10/29 08:25:38;;;;;;;10.38;3.08;;;;;;;11.13;95.19;100493.75;5070780;28;20362;-67
2021/10/29 08:28:04;;;;;;;9.25;3.33;;;;;;;11.15;95.23;100494.91;5067292;28;20036;-67
2021/10/29 08:30:30;;;;;;;10.98;3.45;;;;;;;11.21;94.87;100496.16;5067967;28;20086;-67
2021/10/29 08:32:55;;;;;;;8.32;3.15;;;;;;;11.25;94.90;100493.50;5066728;28;20529;-67
2021/10/29 08:35:21;;;;;;;10.23;4.18;;;;;;;11.35;94.39;100490.19;5067608;28;20028;-66
2021/10/29 08:37:51;;;;;;;7.30;3.03;;;;;;;11.45;93.74;100495.75;5076452;28;20037;-66
2021/10/29 08:40:18;;;;;;;8.90;3.80;;;;;;;11.40;93.89;100489.91;5068915;28;20802;-66
2021/10/29 08:42:45;;;;;;;10.65;3.45;;;;;;;11.44;94.17;100482.66;5066946;28;20510;-64
2021/10/29 08:45:11;;;;;;;12.13;3.45;;;;;;;11.47;92.73;100484.59;5070950;28;20048;-66
2021/10/29 08:47:40;;;;;;;14.35;4.15;;;;;;;11.47;92.81;100481.91;5069813;28;20032;-66
2021/10/29 08:50:10;;;;;;;9.30;3.55;;;;;;;11.52;93.12;100474.28;5066235;28;20129;-65
2021/10/29 08:52:36;;;;;;;9.05;3.55;;;;;;;11.56;93.05;100485.88;5068380;28;20025;-66
2021/10/29 08:55:06;;;;;;;9.32;3.03;;;;;;;11.67;93.58;100480.69;5055512;28;20043;-66
2021/10/29 08:57:32;;;;;;;7.93;3.15;;;;;;;11.71;93.00;100486.91;5056025;28;20046;-66
2021/10/29 08:59:58;;;;;;;7.97;2.88;;;;;;;11.79;92.24;100467.72;5057750;28;20134;-66
2021/10/29 09:07:56;;;;;;;6.07;2.40;;;;;;;12.02;92.72;100470.28;5066555;28;20040;-66
2021/10/29 09:33:06;;;;;;;11.90;2.95;;;;;;;12.78;89.52;100465.25;5068546;28;20490;-67
2021/10/29 09:35:35;;;;;;;11.48;3.67;;;;;;;13.24;88.89;100463.72;5047433;28;20028;-70
2021/10/29 09:38:05;;;;;;;6.07;3.10;;;;;;;13.66;87.27;100465.84;5073734;28;20075;-67
2021/10/29 09:41:06;;;;;;;7.25;3.10;;;;;;;13.73;85.17;100461.25;5035341;28;20097;-67
2021/10/29 09:44:04;;;;;;;5.53;2.88;;;;;;;13.58;85.05;100456.94;5069145;28;20036;-74
2021/10/29 09:46:45;;;;;;;6.45;2.63;;;;;;;13.55;86.46;100454.97;5065131;28;20037;-68
2021/10/29 09:49:20;;;;;;;7.93;3.15;;;;;;;13.63;86.21;100453.84;5067951;28;20081;-68
2021/10/29 09:57:35;;;;;;;6.35;2.60;;;;;;;13.76;84.63;100449.69;5060539;28;20025;-68
2021/10/29 10:00:09;;;;;;;6.53;2.92;;;;;;;13.86;84.28;100445.47;5065049;28;20514;-68
2021/10/29 10:02:44;;;;;;;6.68;2.45;;;;;;;13.87;84.57;100434.25;5064103;28;20446;-68
2021/10/29 10:05:12;;;;;;;6.60;2.83;;;;;;;13.88;84.17;100438.50;5069347;28;20033;-67
2021/10/29 10:07:42;;;;;;;7.18;2.97;;;;;;;14.00;83.60;100427.31;5067064;28;20410;-67
2021/10/29 10:10:10;;;;;;;6.63;3.13;;;;;;;14.02;83.06;100427.72;5107250;22;20047;-68
2021/10/29 10:12:40;;;;;;;6.13;2.55;;;;;;;14.03;84.28;100433.91;5108706;28;20142;-68
2021/10/29 10:15:07;;;;;;;6.15;2.75;;;;;;;14.13;83.71;100433.91;5101788;28;20306;-69
2021/10/29 10:17:33;;;;;;;3.90;2.13;;;;;;;14.15;83.28;100426.19;5107920;28;20541;-68
2021/10/29 10:19:59;;;;;;;6.95;2.65;;;;;;;14.11;83.50;100419.97;5094535;28;20040;-67
2021/10/29 10:22:28;;;;;;;4.38;2.50;;;;;;;14.14;83.63;100434.69;5089512;28;20674;-68
2021/10/29 10:25:03;;;;;;;10.05;2.60;;;;;;;14.25;83.93;100421.94;5086175;28;20024;-68
2021/10/29 10:30:54;;;;;;;8.52;3.05;;;;;;;14.53;84.34;100432.84;5085689;28;20039;-68
2021/10/29 10:47:07;;;;;;;3.78;2.13;;;;;;;15.03;81.50;100399.13;5089223;28;20047;-68
2021/10/29 10:49:48;;;;;;;6.85;2.00;;;;;;;15.03;82.47;100404.56;5085935;28;20032;-68
2021/10/29 10:52:30;;;;;;;4.38;2.20;;;;;;;15.11;82.67;100399.88;5088763;28;20514;-68
2021/10/29 10:55:07;;;;;;;4.15;1.90;;;;;;;15.19;82.92;100401.41;5090306;28;20024;-68
2021/10/29 10:57:50;;;;;;;5.35;2.75;;;;;;;15.30;81.64;100402.94;5092998;28;20393;-68
2021/10/29 11:00:34;;;;;;;5.00;1.85;;;;;;;15.36;82.67;100397.88;5086389;28;20080;-68
2021/10/29 11:11:18;;;;;;;4.10;1.95;;;;;;;15.57;81.77;100384.25;5090270;28;20032;-68
2021/10/29 11:13:44;;;;;;;4.93;1.85;;;;;;;15.63;82.12;100377.25;5089992;28;20024;-68
2021/10/29 11:16:24;;;;;;;4.30;1.88;;;;;;;15.67;81.78;100382.66;5091939;28;20032;-68
2021/10/29 11:18:53;;;;;;;3.28;1.88;;;;;;;15.69;82.36;100372.94;5089746;28;20121;-68
2021/10/29 11:21:33;;;;;;;6.60;1.88;;;;;;;15.79;81.61;100376.78;5090352;28;20069;-67
2021/10/29 11:24:01;;;;;;;4.93;2.60;;;;;;;15.73;81.22;100378.34;5079523;28;20469;-70
2021/10/29 11:26:39;;;;;;;3.10;1.67;;;;;;;15.82;80.23;100371.31;5092793;28;20036;-68
2021/10/29 11:29:05;;;;;;;4.45;2.00;;;;;;;15.91;79.96;100368.94;5083696;28;20035;-68
2021/10/29 11:31:34;;;;;;;2.58;1.40;;;;;;;15.92;80.58;100362.34;5087834;28;20020;-68
2021/10/29 11:34:06;;;;;;;4.40;1.65;;;;;;;15.93;80.67;100354.97;5086887;28;20381;-68
2021/10/29 11:36:38;;;;;;;5.82;2.10;;;;;;;15.97;80.34;100359.19;5094448;28;20107;-68
2021/10/29 11:39:08;;;;;;;4.63;1.75;;;;;;;16.05;79.16;100355.25;5085146;28;20028;-68
2021/10/29 11:41:35;;;;;;;3.47;1.75;;;;;;;16.07;79.17;100347.50;5088493;28;20024;-67
2021/10/29 11:44:05;;;;;;;4.15;1.65;;;;;;;16.06;79.73;100348.66;5092803;28;20032;-68
2021/10/29 11:46:32;;;;;;;4.57;2.08;;;;;;;16.16;78.83;100349.75;5088691;28;20032;-68
2021/10/29 11:49:09;;;;;;;2.97;1.75;;;;;;;16.14;77.23;100352.84;5085044;28;20036;-68
2021/10/29 11:51:36;;;;;;;3.80;1.67;;;;;;;16.14;78.31;100352.84;5087448;28;20111;-69
2021/10/29 12:07:32;;;;;;;2.63;1.20;;;;;;;16.37;78.51;100346.88;5054985;28;20461;-68
2021/10/29 12:10:05;;;;;;;4.22;1.85;;;;;;;16.36;77.72;100336.38;5083600;28;20059;-68
2021/10/29 12:12:32;;;;;;;2.80;1.33;;;;;;;16.44;77.75;100340.59;5086106;28;20087;-68
2021/10/29 12:15:08;;;;;;;2.90;1.30;;;;;;;16.42;77.05;100340.22;5087383;28;20485;-68
2021/10/29 12:17:46;;;;;;;4.68;1.52;;;;;;;16.46;76.74;100335.53;5087203;28;20038;-68
2021/10/29 12:20:16;;;;;;;2.92;1.25;;;;;;;16.46;77.79;100339.03;5089512;28;20028;-68
2021/10/29 12:22:44;;;;;;;3.35;1.55;;;;;;;16.55;76.97;100341.31;5086993;28;20752;-68
2021/10/29 12:25:22;;;;;;;2.33;1.10;;;;;;;16.50;76.83;100341.75;5089037;28;20036;-68
2021/10/29 12:28:05;;;;;;;2.55;1.45;;;;;;;16.59;76.60;100331.19;5083406;28;20044;-68
2021/10/29 12:30:55;;;;;;;1.92;1.45;;;;;;;16.70;75.81;100327.19;5086212;28;20128;-68
2021/10/29 13:03:24;;;;;;;2.50;1.10;;;;;;;16.56;79.24;100304.78;5086758;28;20546;-66
2021/10/29 13:05:56;;;;;;;2.10;1.30;;;;;;;16.70;78.70;100310.09;5087278;28;20073;-66
2021/10/29 13:08:23;;;;;;;2.10;1.23;;;;;;;16.76;78.83;100300.31;5087244;28;20089;-66
2021/10/29 13:10:58;;;;;;;4.68;1.67;;;;;;;16.82;78.47;100298.69;5087796;28;20097;-66
2021/10/29 13:13:30;;;;;;;2.55;1.35;;;;;;;16.92;78.20;100303.22;5084209;28;20027;-67
2021/10/29 13:16:18;;;;;;;2.53;1.45;;;;;;;16.95;77.87;100297.78;5088917;28;20040;-67
2021/10/29 14:31:18;;;;;;;1.15;0.80;;;;;;;17.90;70.46;100209.28;5091913;28;20039;-66
2021/10/29 14:33:52;;;;;;;1.73;0.95;;;;;;;17.95;69.77;100208.84;5087821;28;20463;-67
2021/10/29 14:36:20;;;;;;;1.60;0.80;;;;;;;17.90;69.51;100201.13;5083786;28;20059;-66
2021/10/29 14:38:54;;;;;;;1.25;0.57;;;;;;;17.87;69.66;100198.47;5085503;28;20129;-69
2021/10/29 14:41:30;;;;;;;1.02;0.70;;;;;;;17.71;69.88;100193.66;5086146;28;20065;-67
2021/10/29 14:44:05;;;;;;;1.10;0.75;;;;;;;17.57;70.34;100195.84;5087980;28;20119;-66
2021/10/29 14:49:10;;;;;;;2.92;0.60;;;;;;;17.38;71.30;100193.78;5087406;28;20061;-66
2021/10/29 15:24:40;;;;;;;3.97;0.80;;;;;;;16.64;74.11;100164.88;5091273;28;20074;-66
2021/10/29 15:26:54;;;;;;;1.65;0.95;;;;;;;16.57;74.94;100167.69;5088354;28;20032;-66
2021/10/29 15:29:27;;;;;;;2.28;1.10;;;;;;;16.56;75.05;100156.03;5086100;28;20111;-67
2021/10/29 15:32:35;;;;;;;1.75;0.88;;;;;;;16.46;75.40;100153.38;5087457;28;20028;-66
2021/10/29 15:43:22;;;;;;;1.88;0.90;;;;;;;16.36;76.13;100144.19;5088838;28;20040;-66
2021/10/29 15:45:50;;;;;;;2.15;1.02;;;;;;;16.27;76.19;100144.69;5084860;28;20453;-66
2021/10/29 15:48:19;;;;;;;6.53;1.10;;;;;;;16.20;77.10;100139.31;5091073;28;20024;-66
2021/10/29 15:50:45;;;;;;;2.00;1.20;;;;;;;16.15;77.41;100141.72;5087373;28;20115;-67
2021/10/29 15:53:12;;;;;;;1.88;1.35;;;;;;;16.14;77.33;100126.59;5088771;28;20120;-67
2021/10/29 15:55:46;;;;;;;1.67;1.08;;;;;;;16.10;77.30;100137.47;5091501;28;20044;-66
2021/10/29 16:01:08;;;;;;;1.77;1.30;;;;;;;15.96;77.23;100121.34;5083596;28;20525;-66
2021/10/29 16:17:02;;;;;;;2.05;1.30;;;;;;;15.94;78.53;100120.97;5082101;28;20027;-67